Time;durP1;ratioP1;P1;durP2;ratioP2;P2;SDS_P1;SDS_P2;PMS_P1;PMS_P2;Temp;Humidity;BMP_temperature;BMP_pressure;BME280_temperature;BME280_humidity;BME280_pressure;Samples;Min_cycle;Max_cycle;Signal;HPM_P1;HPM_P2
2023/04/06 00:01:51;;;;;;;11.57;10.25;;;;;;;;;;5065547;28;20418;-82
2023/04/06 00:04:17;;;;;;;12.25;9.73;;;;;;;;;;5064814;28;20417;-83
2023/04/06 00:06:45;;;;;;;14.43;10.95;;;;;;;;;;5070585;28;20493;-82
2023/04/06 00:09:11;;;;;;;12.25;10.35;;;;;;;;;;5066634;28;20409;-82
2023/04/06 00:11:38;;;;;;;14.13;11.00;;;;;;;;;;5067529;28;20417;-82
2023/04/06 00:14:04;;;;;;;14.85;12.20;;;;;;;;;;5049366;28;20400;-82
2023/04/06 00:16:31;;;;;;;14.30;11.60;;;;;;;;;;5066686;28;20430;-82
2023/04/06 00:18:57;;;;;;;13.75;11.75;;;;;;;;;;5066296;28;20538;-82
2023/04/06 00:21:23;;;;;;;14.02;11.70;;;;;;;;;;5064999;28;20788;-80
2023/04/06 00:23:51;;;;;;;15.88;11.60;;;;;;;;;;5066076;28;20923;-82
2023/04/06 00:26:17;;;;;;;14.80;11.57;;;;;;;;;;5063556;28;20421;-82
2023/04/06 00:28:44;;;;;;;14.00;11.70;;;;;;;;;;5063518;28;20427;-82
2023/04/06 00:31:10;;;;;;;15.20;11.73;;;;;;;;;;5065707;28;20793;-82
2023/04/06 00:33:37;;;;;;;13.77;11.50;;;;;;;;;;5066798;28;20400;-81
2023/04/06 00:36:03;;;;;;;16.25;11.60;;;;;;;;;;5062365;28;20735;-82
2023/04/06 00:38:30;;;;;;;14.43;12.30;;;;;;;;;;5065427;28;20427;-82
2023/04/06 00:40:58;;;;;;;15.77;12.95;;;;;;;;;;5070292;28;20542;-82
2023/04/06 00:43:24;;;;;;;18.50;13.27;;;;;;;;;;5065475;28;20429;-82
2023/04/06 00:45:51;;;;;;;15.10;12.80;;;;;;;;;;5064559;28;20415;-82
2023/04/06 00:48:17;;;;;;;17.35;12.60;;;;;;;;;;5068592;28;20424;-82
2023/04/06 00:50:44;;;;;;;18.50;14.10;;;;;;;;;;5068964;28;20493;-81
2023/04/06 00:53:10;;;;;;;17.63;13.60;;;;;;;;;;5072567;28;20433;-82
2023/04/06 00:55:38;;;;;;;17.58;13.30;;;;;;;;;;5072014;28;20418;-81
2023/04/06 00:58:07;;;;;;;15.90;13.43;;;;;;;;;;5063308;28;20413;-81
2023/04/06 01:00:33;;;;;;;16.83;13.30;;;;;;;;;;5060666;28;20435;-81
2023/04/06 01:03:00;;;;;;;15.27;12.65;;;;;;;;;;5066013;28;20410;-81
2023/04/06 01:05:27;;;;;;;15.73;12.85;;;;;;;;;;5064699;28;20421;-81
2023/04/06 01:07:54;;;;;;;18.30;13.30;;;;;;;;;;5062374;28;20931;-81
2023/04/06 01:10:25;;;;;;;15.35;12.70;;;;;;;;;;5062113;28;20471;-80
2023/04/06 01:12:52;;;;;;;19.17;13.93;;;;;;;;;;5059198;28;20459;-81
2023/04/06 01:15:20;;;;;;;16.83;13.10;;;;;;;;;;5064980;28;20417;-81
2023/04/06 01:17:46;;;;;;;17.13;13.55;;;;;;;;;;5061457;28;20423;-81
2023/04/06 01:20:13;;;;;;;17.33;13.80;;;;;;;;;;5062274;28;20536;-81
2023/04/06 01:22:41;;;;;;;16.90;13.73;;;;;;;;;;5062033;28;20920;-81
2023/04/06 01:25:08;;;;;;;19.27;14.85;;;;;;;;;;5065003;28;20424;-81
2023/04/06 01:27:36;;;;;;;18.40;13.80;;;;;;;;;;5063412;28;20434;-81
2023/04/06 01:30:03;;;;;;;20.95;15.25;;;;;;;;;;5063094;28;20875;-81
2023/04/06 01:32:30;;;;;;;18.08;14.80;;;;;;;;;;5045072;28;20424;-81
2023/04/06 01:34:56;;;;;;;19.67;15.13;;;;;;;;;;5045118;28;20413;-82
2023/04/06 01:37:23;;;;;;;20.13;15.70;;;;;;;;;;5062354;28;20412;-81
2023/04/06 01:39:51;;;;;;;19.10;15.10;;;;;;;;;;5065134;28;20415;-81
2023/04/06 01:42:18;;;;;;;20.13;15.10;;;;;;;;;;5058635;28;20424;-81
2023/04/06 01:44:44;;;;;;;19.88;15.15;;;;;;;;;;5061104;28;20417;-81
2023/04/06 01:47:10;;;;;;;18.80;15.20;;;;;;;;;;5052970;28;20549;-81
2023/04/06 01:49:37;;;;;;;18.63;14.68;;;;;;;;;;5064899;28;20789;-81
2023/04/06 01:52:03;;;;;;;17.73;13.95;;;;;;;;;;5059865;28;20422;-81
2023/04/06 01:54:30;;;;;;;17.83;15.07;;;;;;;;;;5057033;28;20483;-81
2023/04/06 01:56:57;;;;;;;19.20;15.05;;;;;;;;;;5058454;28;20418;-81
2023/04/06 01:59:24;;;;;;;20.65;16.25;;;;;;;;;;5062475;28;20413;-81
2023/04/06 02:01:50;;;;;;;20.13;16.60;;;;;;;;;;5063267;28;20419;-81
2023/04/06 02:04:17;;;;;;;22.83;17.50;;;;;;;;;;5042605;28;20408;-81
2023/04/06 02:06:43;;;;;;;21.15;17.55;;;;;;;;;;5060444;28;20429;-81
2023/04/06 02:09:10;;;;;;;22.25;18.88;;;;;;;;;;5062577;28;20425;-81
2023/04/06 02:11:36;;;;;;;25.88;17.98;;;;;;;;;;5070969;28;20420;-81
2023/04/06 02:14:04;;;;;;;23.40;18.33;;;;;;;;;;5067285;28;20521;-82
2023/04/06 02:16:31;;;;;;;21.95;17.23;;;;;;;;;;5069162;28;20874;-81
2023/04/06 02:18:57;;;;;;;26.10;18.08;;;;;;;;;;5065479;28;20498;-81
2023/04/06 02:21:24;;;;;;;24.63;17.90;;;;;;;;;;5066391;28;20423;-81
2023/04/06 02:23:50;;;;;;;22.83;18.77;;;;;;;;;;5046693;28;20440;-81
2023/04/06 02:26:18;;;;;;;25.13;18.40;;;;;;;;;;5065745;28;20468;-81
2023/04/06 02:28:44;;;;;;;26.87;21.17;;;;;;;;;;5060520;28;20531;-81
2023/04/06 02:31:14;;;;;;;31.80;22.50;;;;;;;;;;5067645;28;20423;-81
2023/04/06 02:33:40;;;;;;;29.30;22.50;;;;;;;;;;5065221;28;20418;-81
2023/04/06 02:36:07;;;;;;;28.10;21.50;;;;;;;;;;5065433;28;20463;-81
2023/04/06 02:38:33;;;;;;;30.63;22.48;;;;;;;;;;5063862;28;20415;-81
2023/04/06 02:41:00;;;;;;;28.08;20.98;;;;;;;;;;5063527;28;20430;-81
2023/04/06 02:43:26;;;;;;;26.55;21.00;;;;;;;;;;5064466;28;20435;-81
2023/04/06 02:45:53;;;;;;;28.17;21.17;;;;;;;;;;5065438;28;20964;-81
2023/04/06 02:48:22;;;;;;;28.47;20.87;;;;;;;;;;5048910;28;20795;-81
2023/04/06 02:50:48;;;;;;;27.02;20.60;;;;;;;;;;5064253;28;20411;-81
2023/04/06 02:53:15;;;;;;;30.60;21.63;;;;;;;;;;5063175;28;20450;-81
2023/04/06 02:55:41;;;;;;;28.95;20.95;;;;;;;;;;5063875;28;20764;-81
2023/04/06 02:58:08;;;;;;;29.50;23.52;;;;;;;;;;5053509;28;20423;-81
2023/04/06 03:00:35;;;;;;;26.17;20.20;;;;;;;;;;5067012;28;20425;-81
2023/04/06 03:03:02;;;;;;;30.02;21.17;;;;;;;;;;5064909;28;20493;-81
2023/04/06 03:05:30;;;;;;;27.85;20.98;;;;;;;;;;5060949;28;20421;-81
2023/04/06 03:07:56;;;;;;;25.42;20.05;;;;;;;;;;5067752;28;20427;-80
2023/04/06 03:10:24;;;;;;;24.42;20.02;;;;;;;;;;5065862;28;20428;-81
2023/04/06 03:12:51;;;;;;;27.95;21.08;;;;;;;;;;5060782;28;20466;-81
2023/04/06 03:15:17;;;;;;;31.75;22.02;;;;;;;;;;5063545;28;20493;-81
2023/04/06 03:17:44;;;;;;;28.77;22.60;;;;;;;;;;5063124;28;20439;-81
2023/04/06 03:20:11;;;;;;;30.07;22.50;;;;;;;;;;5063345;28;20418;-80
2023/04/06 03:22:38;;;;;;;28.00;21.23;;;;;;;;;;5067066;28;20435;-80
2023/04/06 03:25:05;;;;;;;28.17;20.60;;;;;;;;;;5067726;28;20420;-81
2023/04/06 03:27:32;;;;;;;33.55;22.23;;;;;;;;;;5069128;28;20421;-81
2023/04/06 03:30:00;;;;;;;30.33;22.00;;;;;;;;;;5065526;28;20430;-80
2023/04/06 03:32:26;;;;;;;29.00;22.92;;;;;;;;;;5064772;28;20796;-81
2023/04/06 03:34:53;;;;;;;30.83;22.83;;;;;;;;;;5066061;28;20794;-81
2023/04/06 03:37:19;;;;;;;30.70;22.33;;;;;;;;;;5062817;28;20442;-80
2023/04/06 03:39:47;;;;;;;30.50;22.80;;;;;;;;;;5067262;28;20985;-80
2023/04/06 03:42:13;;;;;;;29.08;22.35;;;;;;;;;;5057882;28;20416;-80
2023/04/06 03:44:40;;;;;;;30.42;22.95;;;;;;;;;;5046865;28;20797;-81
2023/04/06 03:47:07;;;;;;;27.92;21.95;;;;;;;;;;5064373;28;20414;-81
2023/04/06 03:49:35;;;;;;;29.33;21.52;;;;;;;;;;5064265;28;20416;-80
2023/04/06 03:52:01;;;;;;;29.17;21.63;;;;;;;;;;5062633;28;20454;-80
2023/04/06 03:54:28;;;;;;;31.17;22.42;;;;;;;;;;5062970;28;20483;-80
2023/04/06 03:56:56;;;;;;;30.52;22.40;;;;;;;;;;5064526;28;20919;-80
2023/04/06 03:59:22;;;;;;;28.30;22.10;;;;;;;;;;5061835;28;20419;-81
2023/04/06 04:01:49;;;;;;;28.98;21.58;;;;;;;;;;5064700;28;20412;-81
2023/04/06 04:04:15;;;;;;;31.30;21.98;;;;;;;;;;5066333;28;20438;-80
2023/04/06 04:06:42;;;;;;;29.08;22.27;;;;;;;;;;5063179;28;20412;-80
2023/04/06 04:09:08;;;;;;;27.27;21.75;;;;;;;;;;5063983;28;20415;-80
2023/04/06 04:11:35;;;;;;;29.67;22.13;;;;;;;;;;5063268;28;20427;-80
2023/04/06 04:14:03;;;;;;;28.77;22.38;;;;;;;;;;5062818;28;20500;-80
2023/04/06 04:16:29;;;;;;;27.60;20.98;;;;;;;;;;5065873;28;20426;-80
2023/04/06 04:18:57;;;;;;;28.92;21.75;;;;;;;;;;5063959;28;20431;-80
2023/04/06 04:21:25;;;;;;;29.35;21.98;;;;;;;;;;5042925;28;20414;-80
2023/04/06 04:23:52;;;;;;;29.80;22.35;;;;;;;;;;5046328;28;20422;-81
2023/04/06 04:26:18;;;;;;;27.25;21.40;;;;;;;;;;5043830;28;20427;-80
2023/04/06 04:28:45;;;;;;;26.27;20.40;;;;;;;;;;5042417;28;20414;-80
2023/04/06 04:31:14;;;;;;;29.03;21.03;;;;;;;;;;5063468;28;20426;-80
2023/04/06 04:33:40;;;;;;;25.90;20.50;;;;;;;;;;5041307;28;20842;-80
2023/04/06 04:36:07;;;;;;;26.30;20.77;;;;;;;;;;5063908;28;20497;-80
2023/04/06 04:38:33;;;;;;;28.38;22.40;;;;;;;;;;5062648;28;20922;-81
2023/04/06 04:41:00;;;;;;;27.13;21.97;;;;;;;;;;5030301;28;20462;-80
2023/04/06 04:43:26;;;;;;;30.90;22.48;;;;;;;;;;5046468;28;20433;-80
2023/04/06 04:45:53;;;;;;;31.70;22.80;;;;;;;;;;5041728;28;20453;-81
2023/04/06 04:48:21;;;;;;;32.50;24.08;;;;;;;;;;5043927;28;20488;-80
2023/04/06 04:50:47;;;;;;;26.25;20.67;;;;;;;;;;5060172;28;20420;-80
2023/04/06 04:53:14;;;;;;;28.60;21.67;;;;;;;;;;5065804;28;20440;-80
2023/04/06 04:55:41;;;;;;;26.23;20.70;;;;;;;;;;5072133;28;20429;-80
2023/04/06 04:58:08;;;;;;;30.52;21.90;;;;;;;;;;5059170;28;20429;-80
2023/04/06 05:00:35;;;;;;;25.42;20.25;;;;;;;;;;5061756;28;20419;-80
2023/04/06 05:03:01;;;;;;;24.15;19.50;;;;;;;;;;5050737;28;20417;-80
2023/04/06 05:05:29;;;;;;;25.95;21.15;;;;;;;;;;5060385;28;20413;-80
2023/04/06 05:07:57;;;;;;;26.05;20.85;;;;;;;;;;5059310;28;20518;-80
2023/04/06 05:10:23;;;;;;;27.42;21.38;;;;;;;;;;5043963;28;20425;-80
2023/04/06 05:12:52;;;;;;;27.40;20.50;;;;;;;;;;5044421;28;20427;-79
2023/04/06 05:15:19;;;;;;;25.58;21.25;;;;;;;;;;5064445;28;20461;-80
2023/04/06 05:17:45;;;;;;;26.73;20.02;;;;;;;;;;5063237;28;20482;-81
2023/04/06 05:20:12;;;;;;;25.30;20.60;;;;;;;;;;5063545;28;20427;-81
2023/04/06 05:22:40;;;;;;;23.40;20.05;;;;;;;;;;5065463;28;20429;-81
2023/04/06 05:25:07;;;;;;;25.80;21.20;;;;;;;;;;5061768;28;20812;-81
2023/04/06 05:27:33;;;;;;;25.48;20.55;;;;;;;;;;5063875;28;20433;-81
2023/04/06 05:30:00;;;;;;;25.03;19.03;;;;;;;;;;5065242;28;20426;-80
2023/04/06 05:32:26;;;;;;;27.13;20.70;;;;;;;;;;5067687;28;20812;-80
2023/04/06 05:34:53;;;;;;;29.33;22.92;;;;;;;;;;5061533;28;20404;-81
2023/04/06 05:37:19;;;;;;;27.77;21.52;;;;;;;;;;5063480;28;20438;-80
2023/04/06 05:39:47;;;;;;;26.63;21.15;;;;;;;;;;5059415;28;20411;-80
2023/04/06 05:42:13;;;;;;;26.90;20.60;;;;;;;;;;5062988;28;20415;-80
2023/04/06 05:44:40;;;;;;;24.70;19.92;;;;;;;;;;5035933;28;20921;-80
2023/04/06 05:47:06;;;;;;;25.48;20.42;;;;;;;;;;5068119;28;20421;-80
2023/04/06 05:49:34;;;;;;;22.60;19.27;;;;;;;;;;5063245;28;20489;-80
2023/04/06 05:52:00;;;;;;;24.17;19.58;;;;;;;;;;5066425;28;20423;-80
2023/04/06 05:54:27;;;;;;;24.40;19.70;;;;;;;;;;5063423;28;20413;-80
2023/04/06 05:56:55;;;;;;;25.40;19.60;;;;;;;;;;5069330;28;20415;-81
2023/04/06 05:59:21;;;;;;;25.63;20.10;;;;;;;;;;5059789;28;20427;-80
2023/04/06 06:01:50;;;;;;;23.40;18.85;;;;;;;;;;5048324;28;20429;-80
2023/04/06 06:04:16;;;;;;;26.90;21.20;;;;;;;;;;5058998;28;20417;-80
2023/04/06 06:06:43;;;;;;;24.63;20.15;;;;;;;;;;5066387;28;20437;-80
2023/04/06 06:09:09;;;;;;;26.98;21.00;;;;;;;;;;5045966;28;20413;-80
2023/04/06 06:11:37;;;;;;;25.02;19.73;;;;;;;;;;5065997;28;20417;-80
2023/04/06 06:14:05;;;;;;;26.25;20.10;;;;;;;;;;5065972;28;20417;-80
2023/04/06 06:16:31;;;;;;;26.23;19.75;;;;;;;;;;5064376;28;20416;-80
2023/04/06 06:18:58;;;;;;;23.42;19.38;;;;;;;;;;5067695;28;20893;-80
2023/04/06 06:21:24;;;;;;;26.35;19.75;;;;;;;;;;5065648;28;20439;-80
2023/04/06 06:23:51;;;;;;;24.88;17.80;;;;;;;;;;5049254;28;20416;-80
2023/04/06 06:26:17;;;;;;;19.15;17.15;;;;;;;;;;5066629;28;20920;-80
2023/04/06 06:28:44;;;;;;;24.45;19.25;;;;;;;;;;5058480;28;20895;-80
2023/04/06 06:31:12;;;;;;;20.55;16.88;;;;;;;;;;5067119;28;20907;-80
2023/04/06 06:33:38;;;;;;;20.02;17.88;;;;;;;;;;5066805;28;20428;-80
2023/04/06 06:36:06;;;;;;;20.95;16.85;;;;;;;;;;5064849;28;20411;-80
2023/04/06 06:38:33;;;;;;;22.00;16.55;;;;;;;;;;5046220;28;20474;-80
2023/04/06 06:40:59;;;;;;;19.50;16.85;;;;;;;;;;5061425;28;20421;-80
2023/04/06 06:43:27;;;;;;;18.17;16.20;;;;;;;;;;5065997;28;20411;-80
2023/04/06 06:45:54;;;;;;;19.17;15.85;;;;;;;;;;5062779;28;20503;-80
2023/04/06 06:48:21;;;;;;;20.30;15.85;;;;;;;;;;5062100;28;20498;-80
2023/04/06 06:50:48;;;;;;;19.35;14.70;;;;;;;;;;5061771;28;20930;-80
2023/04/06 06:53:15;;;;;;;18.55;15.50;;;;;;;;;;5061835;28;20942;-80
2023/04/06 06:55:43;;;;;;;19.42;14.82;;;;;;;;;;5066614;28;20499;-80
2023/04/06 06:58:10;;;;;;;21.23;15.70;;;;;;;;;;5067615;28;20469;-80
2023/04/06 07:00:37;;;;;;;20.20;15.57;;;;;;;;;;5062151;28;20933;-80
2023/04/06 07:03:03;;;;;;;19.98;14.90;;;;;;;;;;5062192;28;20416;-80
2023/04/06 07:05:31;;;;;;;20.20;15.23;;;;;;;;;;5066893;28;20416;-80
2023/04/06 07:07:58;;;;;;;17.35;15.32;;;;;;;;;;5067620;28;20416;-80
2023/04/06 07:10:25;;;;;;;16.85;13.70;;;;;;;;;;5041967;28;20428;-80
2023/04/06 07:12:51;;;;;;;21.48;15.57;;;;;;;;;;5064812;28;20451;-80
2023/04/06 07:15:18;;;;;;;15.32;13.70;;;;;;;;;;5065577;28;20493;-80
2023/04/06 07:17:45;;;;;;;16.60;14.00;;;;;;;;;;5065692;28;20836;-80
2023/04/06 07:20:11;;;;;;;16.92;13.13;;;;;;;;;;5063452;28;20513;-80
2023/04/06 07:22:39;;;;;;;16.75;13.68;;;;;;;;;;5064901;28;20422;-80
2023/04/06 07:25:06;;;;;;;16.85;13.45;;;;;;;;;;5061733;28;20559;-80
2023/04/06 07:27:33;;;;;;;19.73;15.27;;;;;;;;;;5044966;28;20501;-80
2023/04/06 07:29:59;;;;;;;19.40;14.13;;;;;;;;;;5062377;28;20420;-81
2023/04/06 07:32:26;;;;;;;17.20;13.63;;;;;;;;;;5068099;28;20419;-80
2023/04/06 07:34:52;;;;;;;17.83;13.27;;;;;;;;;;5063793;28;20424;-80
2023/04/06 07:37:19;;;;;;;14.57;12.30;;;;;;;;;;5062782;28;20412;-80
2023/04/06 07:39:46;;;;;;;18.80;13.07;;;;;;;;;;5067351;28;20416;-80
2023/04/06 07:42:13;;;;;;;20.05;13.07;;;;;;;;;;5063771;28;20916;-80
2023/04/06 07:44:39;;;;;;;17.35;12.20;;;;;;;;;;5064628;28;20418;-80
2023/04/06 07:47:05;;;;;;;19.00;12.60;;;;;;;;;;5064070;28;20431;-80
2023/04/06 07:49:32;;;;;;;16.23;12.82;;;;;;;;;;5062917;28;20779;-80
2023/04/06 07:51:59;;;;;;;20.40;12.73;;;;;;;;;;5061526;28;20931;-80
2023/04/06 07:54:25;;;;;;;15.45;12.80;;;;;;;;;;5063399;28;20447;-80
2023/04/06 07:56:53;;;;;;;18.37;13.33;;;;;;;;;;5061021;28;20419;-80
2023/04/06 07:59:20;;;;;;;19.87;13.07;;;;;;;;;;5067260;28;20408;-80
2023/04/06 08:01:46;;;;;;;14.95;12.38;;;;;;;;;;5063188;28;20428;-80
2023/04/06 08:04:14;;;;;;;16.58;12.52;;;;;;;;;;5059933;28;20433;-80
2023/04/06 08:06:41;;;;;;;15.32;11.38;;;;;;;;;;5063391;28;20437;-80
2023/04/06 08:09:07;;;;;;;20.35;12.30;;;;;;;;;;5066540;28;20419;-81
2023/04/06 08:11:33;;;;;;;16.80;12.20;;;;;;;;;;5061923;28;20909;-80
2023/04/06 08:14:04;;;;;;;17.05;11.25;;;;;;;;;;5061809;28;20915;-81
2023/04/06 08:16:30;;;;;;;15.67;10.80;;;;;;;;;;5062084;28;20429;-80
2023/04/06 08:18:56;;;;;;;14.20;10.73;;;;;;;;;;5062847;28;20438;-81
2023/04/06 08:21:23;;;;;;;15.40;11.90;;;;;;;;;;5043148;28;20405;-80
2023/04/06 08:23:50;;;;;;;13.67;10.80;;;;;;;;;;5041591;28;20546;-78
2023/04/06 08:26:16;;;;;;;17.10;11.07;;;;;;;;;;5047126;28;20421;-81
2023/04/06 08:28:42;;;;;;;14.18;10.40;;;;;;;;;;5043333;28;20423;-80
2023/04/06 08:31:10;;;;;;;13.80;11.17;;;;;;;;;;5059650;28;21007;-80
2023/04/06 08:33:38;;;;;;;14.33;10.53;;;;;;;;;;5064204;28;20419;-79
2023/04/06 08:36:09;;;;;;;14.77;10.52;;;;;;;;;;5059865;28;20415;-79
2023/04/06 08:38:35;;;;;;;11.37;10.00;;;;;;;;;;5062626;28;20499;-79
2023/04/06 08:41:07;;;;;;;12.65;10.30;;;;;;;;;;5062122;28;20416;-79
2023/04/06 08:43:35;;;;;;;13.50;10.25;;;;;;;;;;5043378;28;20418;-79
2023/04/06 08:46:01;;;;;;;14.48;10.27;;;;;;;;;;5061609;28;20459;-79
2023/04/06 08:48:29;;;;;;;18.55;12.13;;;;;;;;;;5058966;28;20417;-80
2023/04/06 08:50:56;;;;;;;17.60;11.55;;;;;;;;;;5068005;28;20445;-80
2023/04/06 08:53:22;;;;;;;16.73;11.63;;;;;;;;;;5062671;28;20411;-80
2023/04/06 08:55:51;;;;;;;15.40;10.60;;;;;;;;;;5060327;28;20439;-80
2023/04/06 08:58:18;;;;;;;18.02;10.63;;;;;;;;;;5060473;28;20422;-81
2023/04/06 09:00:45;;;;;;;14.30;10.80;;;;;;;;;;5059693;28;20471;-79
2023/04/06 09:03:13;;;;;;;14.98;10.80;;;;;;;;;;5059418;28;20409;-81
2023/04/06 09:05:41;;;;;;;14.80;11.73;;;;;;;;;;5062391;28;20411;-80
2023/04/06 09:08:07;;;;;;;17.15;11.18;;;;;;;;;;5065753;28;20416;-80
2023/04/06 09:10:34;;;;;;;16.10;11.30;;;;;;;;;;5040847;28;20421;-80
2023/04/06 09:13:05;;;;;;;13.30;10.35;;;;;;;;;;5045081;28;20416;-79
2023/04/06 09:15:31;;;;;;;14.27;11.32;;;;;;;;;;5039021;28;20413;-81
2023/04/06 09:17:58;;;;;;;17.63;12.20;;;;;;;;;;5065125;28;20426;-80
2023/04/06 09:20:26;;;;;;;13.73;11.00;;;;;;;;;;5061650;28;20440;-79
2023/04/06 09:22:54;;;;;;;16.92;11.50;;;;;;;;;;5043947;28;20496;-80
2023/04/06 09:25:22;;;;;;;12.10;10.73;;;;;;;;;;5063218;28;20413;-79
2023/04/06 09:27:49;;;;;;;15.87;10.73;;;;;;;;;;5066506;28;20446;-80
2023/04/06 09:30:16;;;;;;;14.10;10.70;;;;;;;;;;5063642;28;20414;-80
2023/04/06 09:32:47;;;;;;;13.30;9.82;;;;;;;;;;5065408;28;20454;-80
2023/04/06 09:35:14;;;;;;;13.90;11.00;;;;;;;;;;5064516;28;20915;-80
2023/04/06 09:37:40;;;;;;;11.10;10.00;;;;;;;;;;5061819;28;20457;-80
2023/04/06 09:40:09;;;;;;;13.15;10.13;;;;;;;;;;5066708;28;20427;-81
2023/04/06 09:42:36;;;;;;;13.45;10.82;;;;;;;;;;5065000;28;20426;-80
2023/04/06 09:45:03;;;;;;;12.75;10.40;;;;;;;;;;5061524;28;20423;-81
2023/04/06 09:47:29;;;;;;;14.77;11.32;;;;;;;;;;5062247;28;20437;-80
2023/04/06 09:49:57;;;;;;;12.60;10.70;;;;;;;;;;5058792;28;20507;-80
2023/04/06 09:52:25;;;;;;;12.57;10.00;;;;;;;;;;5060989;28;20458;-79
2023/04/06 09:54:53;;;;;;;11.23;10.02;;;;;;;;;;5067635;28;20457;-80
2023/04/06 09:57:26;;;;;;;11.95;10.40;;;;;;;;;;5067454;28;20444;-80
2023/04/06 09:59:58;;;;;;;12.82;11.50;;;;;;;;;;5061921;28;20439;-79
2023/04/06 10:02:27;;;;;;;13.98;11.10;;;;;;;;;;5062621;28;20416;-80
2023/04/06 10:04:55;;;;;;;14.27;11.20;;;;;;;;;;5064472;28;20412;-81
2023/04/06 10:07:22;;;;;;;13.57;11.70;;;;;;;;;;5062346;28;20434;-81
2023/04/06 10:09:50;;;;;;;13.32;11.23;;;;;;;;;;5064040;28;20412;-80
2023/04/06 10:12:17;;;;;;;15.80;12.00;;;;;;;;;;5065200;28;20409;-79
2023/04/06 10:14:45;;;;;;;15.27;12.35;;;;;;;;;;5065097;28;20418;-80
2023/04/06 10:17:13;;;;;;;13.60;11.80;;;;;;;;;;5064924;28;20414;-82
2023/04/06 10:19:42;;;;;;;14.07;11.43;;;;;;;;;;5066142;28;20412;-81
2023/04/06 10:22:09;;;;;;;14.80;12.10;;;;;;;;;;5062694;28;20411;-80
2023/04/06 10:24:36;;;;;;;15.18;11.52;;;;;;;;;;5062335;28;20430;-82
2023/04/06 10:27:03;;;;;;;17.08;13.68;;;;;;;;;;5060449;28;20427;-80
2023/04/06 10:29:41;;;;;;;13.43;11.93;;;;;;;;;;5062418;28;20416;-82
2023/04/06 10:32:09;;;;;;;14.48;12.18;;;;;;;;;;5065930;28;20413;-79
2023/04/06 10:34:36;;;;;;;15.30;12.38;;;;;;;;;;5067313;28;20400;-79
2023/04/06 10:37:11;;;;;;;15.13;12.20;;;;;;;;;;5066253;28;20485;-79
2023/04/06 10:39:46;;;;;;;14.00;12.27;;;;;;;;;;5046896;28;20417;-81
2023/04/06 10:42:13;;;;;;;15.63;12.63;;;;;;;;;;5068399;28;20427;-82
2023/04/06 10:44:43;;;;;;;13.90;12.00;;;;;;;;;;5065343;28;20423;-81
2023/04/06 10:47:16;;;;;;;14.85;12.82;;;;;;;;;;5069236;28;20437;-81
2023/04/06 10:49:45;;;;;;;16.65;13.07;;;;;;;;;;5067129;28;20413;-82
2023/04/06 10:52:12;;;;;;;14.30;12.35;;;;;;;;;;5070448;28;20873;-81
2023/04/06 10:54:41;;;;;;;14.63;13.13;;;;;;;;;;5064592;28;20417;-82
2023/04/06 10:57:08;;;;;;;16.10;14.00;;;;;;;;;;5070085;28;20411;-81
2023/04/06 10:59:35;;;;;;;15.82;13.68;;;;;;;;;;5066399;28;20424;-81
2023/04/06 11:02:01;;;;;;;15.18;13.57;;;;;;;;;;5067414;28;20414;-82
2023/04/06 11:04:30;;;;;;;17.90;14.27;;;;;;;;;;5067513;28;20412;-82
2023/04/06 11:06:57;;;;;;;18.17;14.75;;;;;;;;;;5066156;28;20999;-81
2023/04/06 11:09:24;;;;;;;15.60;13.50;;;;;;;;;;5067253;28;20417;-79
2023/04/06 11:11:50;;;;;;;16.75;15.05;;;;;;;;;;5063680;28;20422;-79
2023/04/06 11:14:16;;;;;;;16.93;14.70;;;;;;;;;;5064128;28;20427;-79
2023/04/06 11:16:43;;;;;;;17.00;15.20;;;;;;;;;;5068044;28;20414;-81
2023/04/06 11:19:09;;;;;;;18.08;15.82;;;;;;;;;;5064170;28;20423;-81
2023/04/06 11:21:39;;;;;;;16.65;14.95;;;;;;;;;;5062684;28;20495;-81
2023/04/06 11:24:06;;;;;;;19.10;15.45;;;;;;;;;;5064549;28;20410;-80
2023/04/06 11:26:32;;;;;;;18.88;16.88;;;;;;;;;;5066769;28;20432;-79
2023/04/06 11:28:59;;;;;;;19.55;15.80;;;;;;;;;;5064817;28;20473;-80
2023/04/06 11:31:26;;;;;;;17.30;14.80;;;;;;;;;;5067158;28;20429;-81
2023/04/06 11:33:56;;;;;;;18.43;15.97;;;;;;;;;;5065270;28;20515;-79
2023/04/06 11:36:23;;;;;;;18.30;15.35;;;;;;;;;;5044619;28;20406;-79
2023/04/06 11:38:51;;;;;;;18.35;15.50;;;;;;;;;;5045239;28;20768;-80
2023/04/06 11:41:17;;;;;;;19.43;16.80;;;;;;;;;;5063893;28;20407;-80
2023/04/06 11:43:48;;;;;;;20.92;16.10;;;;;;;;;;5061415;28;20443;-80
2023/04/06 11:46:18;;;;;;;19.47;16.83;;;;;;;;;;5063189;28;20415;-80
2023/04/06 11:48:45;;;;;;;17.65;15.02;;;;;;;;;;5047041;28;20893;-80
2023/04/06 11:51:11;;;;;;;19.05;15.50;;;;;;;;;;5059104;28;20436;-80
2023/04/06 11:53:44;;;;;;;18.20;15.32;;;;;;;;;;5067304;28;20916;-80
2023/04/06 11:56:12;;;;;;;17.65;14.80;;;;;;;;;;5048221;28;20422;-80
2023/04/06 11:58:38;;;;;;;19.45;15.40;;;;;;;;;;5061033;28;20421;-80
2023/04/06 12:01:05;;;;;;;19.67;15.32;;;;;;;;;;5062921;28;20430;-80
2023/04/06 12:03:31;;;;;;;17.90;14.50;;;;;;;;;;5066440;28;20430;-80
2023/04/06 12:05:58;;;;;;;17.25;15.07;;;;;;;;;;5062524;28;20447;-81
2023/04/06 12:08:25;;;;;;;16.58;14.88;;;;;;;;;;5061118;28;20429;-81
2023/04/06 12:10:52;;;;;;;22.05;16.00;;;;;;;;;;5063703;28;20412;-79
2023/04/06 12:13:19;;;;;;;20.60;16.70;;;;;;;;;;5064719;28;20425;-79
2023/04/06 12:15:46;;;;;;;17.48;15.23;;;;;;;;;;5066242;28;20763;-79
2023/04/06 12:18:12;;;;;;;18.08;15.60;;;;;;;;;;5045790;28;20412;-79
2023/04/06 12:20:39;;;;;;;16.33;14.10;;;;;;;;;;5063068;28;20913;-80
2023/04/06 12:23:05;;;;;;;16.50;14.80;;;;;;;;;;5064649;28;20408;-79
2023/04/06 12:25:31;;;;;;;19.30;15.60;;;;;;;;;;5058210;28;20423;-79
2023/04/06 12:27:58;;;;;;;18.70;15.43;;;;;;;;;;5065523;28;20438;-79
2023/04/06 12:30:26;;;;;;;16.90;15.20;;;;;;;;;;5063362;28;20424;-80
2023/04/06 12:32:52;;;;;;;18.15;15.63;;;;;;;;;;5062752;28;20411;-81
2023/04/06 12:35:18;;;;;;;17.88;14.15;;;;;;;;;;5064329;28;20408;-81
2023/04/06 12:37:45;;;;;;;16.65;13.77;;;;;;;;;;5065075;28;21005;-80
2023/04/06 12:40:12;;;;;;;16.00;13.70;;;;;;;;;;5062272;28;20425;-80
2023/04/06 12:42:40;;;;;;;17.25;14.48;;;;;;;;;;5047428;28;20413;-79
2023/04/06 12:45:07;;;;;;;16.58;13.82;;;;;;;;;;5061080;28;20904;-79
2023/04/06 12:47:35;;;;;;;17.58;14.35;;;;;;;;;;5064258;28;20512;-80
2023/04/06 12:50:02;;;;;;;19.00;14.93;;;;;;;;;;5062593;28;20435;-79
2023/04/06 12:52:31;;;;;;;18.23;14.02;;;;;;;;;;5061763;28;20426;-81
2023/04/06 12:54:59;;;;;;;16.75;14.23;;;;;;;;;;5063956;28;20411;-79
2023/04/06 12:57:26;;;;;;;16.15;14.20;;;;;;;;;;5066812;28;20913;-79
2023/04/06 12:59:52;;;;;;;16.90;14.00;;;;;;;;;;5060725;28;20505;-80
2023/04/06 13:02:20;;;;;;;16.58;13.88;;;;;;;;;;5060735;28;20447;-80
2023/04/06 13:04:49;;;;;;;19.90;14.95;;;;;;;;;;5058759;28;20420;-79
2023/04/06 13:07:16;;;;;;;15.50;13.90;;;;;;;;;;5059056;28;20434;-81
2023/04/06 13:09:43;;;;;;;16.73;14.90;;;;;;;;;;5062397;28;20431;-81
2023/04/06 13:12:10;;;;;;;18.23;14.60;;;;;;;;;;5057320;28;20903;-79
2023/04/06 13:14:36;;;;;;;17.88;14.20;;;;;;;;;;5062362;28;20536;-80
2023/04/06 13:17:02;;;;;;;17.90;13.48;;;;;;;;;;5062609;28;20510;-80
2023/04/06 13:19:31;;;;;;;15.50;13.40;;;;;;;;;;5061539;28;20569;-80
2023/04/06 13:21:58;;;;;;;15.68;12.90;;;;;;;;;;5064582;28;20413;-80
2023/04/06 13:24:25;;;;;;;14.25;12.50;;;;;;;;;;5063404;28;20922;-80
2023/04/06 13:26:51;;;;;;;13.45;11.82;;;;;;;;;;5064036;28;20766;-81
2023/04/06 13:29:17;;;;;;;14.93;12.65;;;;;;;;;;5064542;28;20418;-81
2023/04/06 13:31:44;;;;;;;14.40;12.23;;;;;;;;;;5062540;28;20414;-82
2023/04/06 13:34:11;;;;;;;15.75;13.30;;;;;;;;;;5061306;28;20428;-81
2023/04/06 13:36:38;;;;;;;15.55;12.70;;;;;;;;;;5064081;28;20475;-81
2023/04/06 13:39:06;;;;;;;14.00;12.30;;;;;;;;;;5057590;28;20416;-81
2023/04/06 13:41:32;;;;;;;15.73;12.90;;;;;;;;;;5061954;28;20433;-81
2023/04/06 13:43:59;;;;;;;14.30;12.85;;;;;;;;;;5060250;28;20419;-81
2023/04/06 13:46:27;;;;;;;13.88;12.45;;;;;;;;;;5065863;28;20440;-80
2023/04/06 13:48:53;;;;;;;15.07;11.90;;;;;;;;;;5062824;28;20522;-81
2023/04/06 13:51:20;;;;;;;15.38;13.15;;;;;;;;;;5065867;28;20408;-80
2023/04/06 13:53:46;;;;;;;15.80;12.70;;;;;;;;;;5063153;28;20903;-81
2023/04/06 13:56:14;;;;;;;15.35;12.98;;;;;;;;;;5065338;28;20773;-81
2023/04/06 13:58:40;;;;;;;13.85;12.07;;;;;;;;;;5064491;28;20428;-81
2023/04/06 14:01:09;;;;;;;13.90;12.50;;;;;;;;;;5064189;28;20413;-82
2023/04/06 14:03:35;;;;;;;14.32;12.82;;;;;;;;;;5063542;28;20430;-78
2023/04/06 14:06:02;;;;;;;13.73;12.15;;;;;;;;;;5063980;28;20416;-81
2023/04/06 14:08:28;;;;;;;14.82;13.20;;;;;;;;;;5068125;28;20423;-81
2023/04/06 14:10:56;;;;;;;14.77;12.98;;;;;;;;;;5063467;28;20517;-79
2023/04/06 14:13:23;;;;;;;15.38;13.70;;;;;;;;;;5064364;28;20429;-81
2023/04/06 14:15:54;;;;;;;14.45;12.50;;;;;;;;;;5063261;28;21049;-79